Renner Field-Goodland Municipal Airport
KGLD : now visible

Airfield :











YOU CAN JOIN US ON...

 
LOGIN :

Register | Disclaimer

   EN    FR    IT 

 









Legend :    VFR   Marginal VFR   IFR   Intensive IFR   Very Intensive IFR
Visi :
Ceiling :
>= 8 km
>= 3000ft
5 to 8 km
1000 to 3000 ft
1500m to 5 km
500 to 1000 ft
800 to 1500m
200 to 500 ft
< 800m
< 200 ft
Symbols :   Thunderstorms  Fog  Heavy snow  Heavy precipitations  Wind > 20 kt







- Airport Elevation : 3656 ft


KGLD - Renner Field-Goodland Municipal

CURRENT METAR :
  • 201953Z AUTO 16019G31KT 10SM CLR 28/17 A2981 RMK AO2 PK WND 17033/1910 SLP051 T02830167

EXPIRED METARs :
  • 201853Z AUTO 19021G32KT 10SM CLR 27/16 A2984 RMK AO2 PK WND 16035/1809 SLP060 T02670156
  • 201753Z AUTO 16021G29KT 10SM CLR 25/16 A2986 RMK AO2 PK WND 16031/1655 SLP071 60000 T02500156 10250 20161 58013

TAF KGLD
Valid from the 20 at 18:00 until the 21 at 18:00 UTC


201735Z 2018/2118 17023G29KT P6SM SCT100
FM210600 20018KT P6SM SCT100
FM211000 VRB06KT P6SM SCT100
No reported NOTAMs for that airfield.



MET'MAP, your aeronautical weather chart ! - Copyright ORBIFLY December 2007 - Disclaimer

ORBIFLY MET'MAP TEAM :

Programming & Development : Alexandra Zaïnal
Concept & Development : Baudouin d'Aumeries
Co-Development & Prog : Marc-Olivier Méhu
Technical & hardware support : Manuel Goepfert

Contact : metmap@orbifly.com




SOURCES & CREDITS :

   NOAA       Earth
Advisory